SLET/SRZ METAR and TAF weather

Enter ICAO airport designator
Station Type Date Time Source
SLET METAR 2021/10/24 22:00 UTC NOAA

SLET 242200Z 07004KT 9999 SCT020 SCT070 BKN200 23/15 Q1014


Station Type Date Time Source
SLET Decoded METAR 2021/10/24 22:00 UTC NOAA

Santa Cruz / El Trompillo, Bolivia (SLET) 17-48S 063-11W 414M
Oct 24, 2021 - 06:00 PM EDT / 2021.10.24 2200 UTC
Wind: from the ENE (070 degrees) at 5 MPH (4 KT):0
Visibility: greater than 7 mile(s):0
Sky conditions: mostly cloudy
Temperature: 73 F (23 C)
Dew Point: 59 F (15 C)
Relative Humidity: 60%
Pressure (altimeter): 29.94 in. Hg (1014 hPa)
ob: SLET 242200Z 07004KT 9999 SCT020 SCT070 BKN200 23/15 Q1014
cycle: 22

Station Type Date Time Source
SLET TAF 2021/10/24 18:51 UTC NOAA

TAF SLET 241600Z 2418/2518 18020G30KT 9999 SCT020 BKN070 TX28/2420Z TN18/2512Z
BECMG 2422/2424 18015KT SCT023 SCT080
TEMPO 2515/2518 VRB02KT SCT020 FEW027TCU

Example: see airport list